AirNav   Bose Proflight Series 2 Wireless viation Headset
 
 1003 users online  

RI25 Rhode Island Hospital Heliport
Providence, Rhode Island, USA

GOING TO PROVIDENCE?


FAA INFORMATION EFFECTIVE 10 OCTOBER 2019

Location

FAA Identifier: RI25
Lat/Long: 41-48-36.6500N 071-24-34.0900W
41-48.610833N 071-24.568167W
41.8101806,-71.4094694
(estimated)
Elevation: 71 ft. / 22 m (estimated)
Variation: 15W (1985)
From city: 1 mile S of PROVIDENCE, RI
Time zone: UTC -4 (UTC -5 during Standard Time)
Zip code: 02905

Heliport Operations

Heliport use: Private use, MEDICAL USE.
Activation date: 02/1987
Control tower: no
ARTCC: BOSTON CENTER
FSS: BRIDGEPORT FLIGHT SERVICE STATION
Attendance: UNATNDD
Wind indicator: yes
Segmented circle: no
Lights: SS-SR

Heliport Communications

WX ASOS at PVD (5 nm S): 124.2 (401-734-2818)
WX AWOS-3PT at SFZ (8 nm NW): 120.775 (401-334-0324)
WX ASOS at UUU (18 nm S): 132.075 (401-846-5910)
WX ASOS at TAN (18 nm E): 132.675 (508-824-5005)

Nearby radio navigation aids

VOR radial/distance  VOR name  Freq  Var
PVDr024/5.2PROVIDENCE VOR/DME115.6014W
PUTr128/21.3PUTNAM VOR/DME117.4014W
ORWr074/30.5NORWICH VOR/DME110.0014W
BOSr226/37.8BOSTON VOR/DME112.7016W
SEYr026/39.3SANDY POINT VOR/DME117.8015W

 
NDB name  Hdg/Dist  Freq  Var  ID
TAUNTON273/18.022716WTAN - .- -.
MARSHFIELD258/37.036816WIMR .. -- .-.

Heliport Services

Runway Information

Helipad H1

Dimensions: 54 x 54 ft. / 16 x 16 m
Surface: mats
Runway edge lights: PERI
Latitude: 41-48.610833N
Longitude: 071-24.568167W
Elevation: 71.0 ft.
Traffic pattern: leftleft

Heliport Ownership and Management from official FAA records

Ownership: Privately-owned
Owner: RHODE ISLAND HOSPITAL
593 EDDY STREET
PROVIDENCE, RI 20903
Phone 401-444-8000
Manager: SCOTT PATEFIELD
593 EDDY STREET
PROVIDENCE, RI 20903
Phone 401-444-5852

Heliport Operational Statistics

Aircraft operations: 76/year
95% transient general aviation
5% military

Additional Remarks

FOR CD CTC PROVIDENCE APCH AT 401-738-8945, WHEN APCH CLSD CTC BOSTON ARTCC AT 603-879-6859.

Instrument Procedures

There are no published instrument procedures at RI25.

Some nearby airports with instrument procedures:

KPVD - Theodore Francis Green State Airport (5 nm S)
KSFZ - North Central State Airport (8 nm NW)
KOQU - Quonset State Airport (13 nm S)
1B9 - Mansfield Municipal Airport (15 nm NE)
KUUU - Newport State Airport (18 nm S)
KTAN - Taunton Municipal Airport - King Field (18 nm E)
1B6 - Hopedale Industrial Park Airport (18 nm N)
 
Loc | Ops | Rwys | IFR | FBO | Links
Com | Nav | Svcs | Stats | Notes
Area around RI25 (Rhode Island Hospital Heliport)
 
Road maps at: MapQuest Bing Google
 
Aerial photo
No photo
 
Sectional chart

 
Airport distance calculator
Flying to Rhode Island Hospital Heliport? Find the distance to fly.

From to RI25

Sunrise and sunset
Times for 15-Oct-2019
 Local
(UTC-4)
 Zulu
(UTC)
Morning civil twilight06:3110:31
Sunrise06:5910:59
Sunset18:0422:04
Evening civil twilight18:3222:32

Current date and time
Zulu (UTC)  15-Oct-2019 23:00:01
Local (UTC-4)  15-Oct-2019 19:00:01
 
METAR
KPVD 
6nm S 
152251Z 19004KT 10SM BKN250 11/05 A3009 RMK AO2 SLP191 T01110050
KSFZ 
8nm NW 
152156Z AUTO 00000KT 10SM CLR 11/04 A3008 RMK AO2 SLP134 T01060044
KOQU 
13nm S 
152250Z 21010KT 10SM SCT250 14/06 A3009
KUUU 
18nm S 
152253Z AUTO 20004KT 10SM CLR 13/04 A3009 RMK AO2 SLP189 T01280039
KTAN 
18nm E 
152252Z AUTO 11004KT 10SM CLR 09/06 A3008 RMK AO2 SLP187 T00890056
TAF
KPVD 
6nm S 
152044Z 1521/1618 30007KT P6SM SCT250 FM152200 27004KT P6SM SCT250 FM152300 22003KT P6SM SCT250 FM160000 00000KT P6SM SKC FM161000 14003KT P6SM SKC
NOTAMs
Click for the latest NOTAMs
NOTAMs are issued by the DoD/FAA and will open in a separate window not controlled by AirNav.

 

 
 

Would you like to see your business listed on this page?

 If your business provides an interesting product or service to pilots, flight crews, aircraft, or users of the Rhode Island Hospital Heliport, you should consider listing it here.  To start the listing process, click on the button below
 
Add a business
 

Other Pages about Rhode Island Hospital Heliport

Update a link
 
Copyright © AirNav, LLC. All rights reserved. Privacy Policy  Contact